Time;durP1;ratioP1;P1;durP2;ratioP2;P2;SDS_P1;SDS_P2;PMS_P1;PMS_P2;Temp;Humidity;BMP_temperature;BMP_pressure;BME280_temperature;BME280_humidity;BME280_pressure;Samples;Min_cycle;Max_cycle;Signal;HPM_P1;HPM_P2
2023/09/26 00:01:13;;;;;;;1.97;1.27;;;9.80;99.90;;;;;;5031151;28;20202;-62
2023/09/26 00:03:40;;;;;;;2.10;1.03;;;9.90;99.90;;;;;;5030714;28;20181;-62
2023/09/26 00:06:18;;;;;;;2.40;1.67;;;9.80;99.90;;;;;;5031252;28;20767;-62
2023/09/26 00:08:44;;;;;;;3.27;2.23;;;9.70;99.90;;;;;;5028051;28;20442;-62
2023/09/26 00:11:09;;;;;;;1.90;1.20;;;9.70;99.90;;;;;;5027016;28;20432;-62
2023/09/26 00:13:35;;;;;;;1.97;1.30;;;9.60;99.90;;;;;;5023761;28;20198;-62
2023/09/26 00:16:00;;;;;;;2.83;1.77;;;9.60;99.90;;;;;;5025358;28;20636;-65
2023/09/26 00:18:26;;;;;;;4.40;1.63;;;9.60;99.90;;;;;;5030402;28;20182;-65
2023/09/26 00:20:52;;;;;;;2.50;1.70;;;9.60;99.90;;;;;;5026361;28;20261;-65
2023/09/26 00:23:17;;;;;;;1.90;1.30;;;9.70;99.90;;;;;;5027078;28;20186;-65
2023/09/26 00:25:44;;;;;;;4.07;1.63;;;9.70;99.90;;;;;;5029259;28;20223;-65
2023/09/26 00:28:10;;;;;;;4.37;1.50;;;9.70;99.90;;;;;;5022874;28;20186;-65
2023/09/26 00:30:35;;;;;;;2.73;1.40;;;9.60;99.90;;;;;;5027349;28;20421;-65
2023/09/26 00:33:01;;;;;;;2.77;1.33;;;9.60;99.90;;;;;;5032485;28;20186;-65
2023/09/26 00:35:27;;;;;;;8.33;2.07;;;9.50;99.90;;;;;;5026293;28;20186;-64
2023/09/26 00:37:52;;;;;;;2.80;1.50;;;9.50;99.90;;;;;;5029538;28;20215;-65
2023/09/26 00:40:21;;;;;;;2.80;1.37;;;9.50;99.90;;;;;;5023759;28;20627;-64
2023/09/26 00:42:47;;;;;;;3.40;1.63;;;11.00;99.90;;;;;;5022529;28;20206;-65
2023/09/26 00:45:13;;;;;;;3.50;1.67;;;9.50;99.90;;;;;;5030091;28;20923;-65
2023/09/26 00:47:43;;;;;;;2.57;1.80;;;9.40;99.90;;;;;;5031647;28;20186;-65
2023/09/26 00:50:13;;;;;;;3.73;1.57;;;9.30;99.90;;;;;;5029514;28;20459;-65
2023/09/26 00:52:45;;;;;;;3.07;1.67;;;9.30;99.90;;;;;;5031800;28;20897;-65
2023/09/26 00:55:13;;;;;;;3.10;1.90;;;9.30;99.90;;;;;;5022343;28;20843;-64
2023/09/26 00:57:39;;;;;;;2.40;1.63;;;9.30;99.90;;;;;;5026987;28;20464;-65
2023/09/26 01:00:08;;;;;;;4.00;1.83;;;9.30;99.90;;;;;;5027146;28;20429;-65
2023/09/26 01:02:34;;;;;;;2.60;1.57;;;9.30;99.90;;;;;;5030489;28;20468;-65
2023/09/26 01:04:59;;;;;;;3.13;2.00;;;9.30;99.90;;;;;;5028901;28;20479;-65
2023/09/26 01:07:26;;;;;;;3.00;1.50;;;9.30;99.90;;;;;;5028015;28;20273;-64
2023/09/26 01:09:53;;;;;;;4.70;1.93;;;9.30;99.90;;;;;;5020675;28;20815;-65
2023/09/26 01:12:20;;;;;;;5.10;1.93;;;9.20;99.90;;;;;;5031687;28;20482;-65
2023/09/26 01:14:46;;;;;;;2.87;1.47;;;9.20;99.90;;;;;;5028669;28;20444;-65
2023/09/26 01:17:12;;;;;;;6.07;2.03;;;9.20;99.90;;;;;;5026087;28;20919;-65
2023/09/26 01:19:38;;;;;;;2.90;1.60;;;9.20;99.90;;;;;;5028153;28;20429;-65
2023/09/26 01:22:04;;;;;;;2.33;1.77;;;9.30;99.90;;;;;;5031044;28;20479;-64
2023/09/26 01:24:30;;;;;;;2.33;1.27;;;9.10;99.90;;;;;;5027836;28;20205;-65
2023/09/26 01:26:55;;;;;;;4.27;2.13;;;9.00;99.90;;;;;;5030501;28;20182;-65
2023/09/26 01:29:21;;;;;;;4.23;2.23;;;9.00;99.90;;;;;;5028071;28;20650;-65
2023/09/26 01:31:46;;;;;;;2.77;1.73;;;9.00;99.90;;;;;;5030865;28;20190;-65
2023/09/26 01:34:12;;;;;;;3.00;1.57;;;9.10;99.90;;;;;;5028374;28;20186;-64
2023/09/26 01:36:38;;;;;;;3.93;1.57;;;9.10;99.90;;;;;;5031195;28;20209;-65
2023/09/26 01:39:05;;;;;;;2.80;1.63;;;9.10;99.90;;;;;;5024086;28;20298;-65
2023/09/26 01:41:31;;;;;;;2.53;1.63;;;9.10;99.90;;;;;;5028696;28;20216;-65
2023/09/26 01:43:57;;;;;;;4.60;1.50;;;9.10;99.90;;;;;;5021986;28;20512;-65
2023/09/26 01:46:23;;;;;;;7.53;2.30;;;9.10;99.90;;;;;;5030296;28;20205;-65
2023/09/26 01:48:49;;;;;;;2.67;1.73;;;9.10;99.90;;;;;;5026255;28;20705;-65
2023/09/26 01:51:14;;;;;;;3.30;1.83;;;9.10;99.90;;;;;;5029697;28;20229;-65
2023/09/26 01:53:40;;;;;;;4.77;1.60;;;9.10;99.90;;;;;;5026677;28;20418;-65
2023/09/26 01:56:06;;;;;;;2.00;1.10;;;9.00;99.90;;;;;;5021922;28;20260;-64
2023/09/26 01:58:32;;;;;;;2.83;1.57;;;9.00;99.90;;;;;;5023535;28;20239;-65
2023/09/26 02:00:58;;;;;;;3.07;1.60;;;8.90;99.90;;;;;;5024264;28;20689;-65
2023/09/26 02:03:24;;;;;;;2.50;1.37;;;8.90;99.90;;;;;;5030428;28;20425;-65
2023/09/26 02:05:51;;;;;;;4.87;1.70;;;9.00;99.90;;;;;;5027855;28;20421;-65
2023/09/26 02:08:16;;;;;;;5.03;1.70;;;8.90;99.90;;;;;;5030028;28;20183;-65
2023/09/26 02:10:42;;;;;;;2.73;1.43;;;8.90;99.90;;;;;;5023568;28;20441;-65
2023/09/26 02:13:08;;;;;;;2.90;1.80;;;8.90;99.90;;;;;;5023311;28;20944;-64
2023/09/26 02:15:36;;;;;;;2.40;1.27;;;8.90;99.90;;;;;;5022847;28;20183;-65
2023/09/26 02:18:02;;;;;;;3.33;1.70;;;8.80;99.90;;;;;;5022454;28;20508;-65
2023/09/26 02:20:27;;;;;;;2.17;1.10;;;8.80;99.90;;;;;;5024685;28;20832;-65
2023/09/26 02:22:53;;;;;;;5.20;1.43;;;8.80;99.90;;;;;;5029856;28;20782;-65
2023/09/26 02:25:20;;;;;;;5.03;1.63;;;8.80;99.90;;;;;;5025702;28;20552;-65
2023/09/26 02:27:46;;;;;;;1.77;1.20;;;8.60;99.90;;;;;;5030604;28;20186;-65
2023/09/26 02:30:23;;;;;;;2.20;1.53;;;8.50;99.90;;;;;;5027004;28;20474;-65
2023/09/26 02:32:49;;;;;;;5.80;1.80;;;8.60;99.90;;;;;;5030661;28;20424;-65
2023/09/26 02:35:16;;;;;;;4.50;1.67;;;8.60;99.90;;;;;;5025945;28;20425;-65
2023/09/26 02:37:42;;;;;;;3.83;2.00;;;8.60;99.90;;;;;;5026628;28;20174;-65
2023/09/26 02:40:09;;;;;;;2.77;1.47;;;10.20;99.90;;;;;;5024136;28;20433;-65
2023/09/26 02:42:40;;;;;;;2.70;1.90;;;8.80;99.90;;;;;;5030143;28;20479;-65
2023/09/26 02:45:06;;;;;;;4.23;1.80;;;8.90;99.90;;;;;;5028085;28;20434;-65
2023/09/26 02:47:32;;;;;;;2.60;1.10;;;8.70;99.90;;;;;;5029433;28;20424;-65
2023/09/26 02:49:58;;;;;;;2.73;1.67;;;8.60;99.90;;;;;;5027858;28;20425;-65
2023/09/26 02:52:24;;;;;;;5.13;1.73;;;8.60;99.90;;;;;;5030185;28;20216;-65
2023/09/26 02:54:50;;;;;;;3.60;1.93;;;8.60;99.90;;;;;;5026525;28;20179;-65
2023/09/26 02:57:17;;;;;;;2.00;1.03;;;8.60;99.90;;;;;;5029761;28;20452;-65
2023/09/26 02:59:43;;;;;;;5.37;2.37;;;9.20;99.90;;;;;;5026927;28;20183;-65
2023/09/26 03:02:08;;;;;;;2.47;1.40;;;10.00;99.90;;;;;;5029118;28;20590;-65
2023/09/26 03:04:34;;;;;;;5.00;1.80;;;;;;;;;;5026612;28;20240;-65
2023/09/26 03:07:00;;;;;;;2.57;1.17;;;8.50;99.90;;;;;;5029951;28;20616;-65
2023/09/26 03:09:25;;;;;;;2.47;1.60;;;8.60;99.90;;;;;;5026009;28;20421;-65
2023/09/26 03:11:51;;;;;;;2.10;1.40;;;8.50;99.90;;;;;;5029808;28;20262;-65
2023/09/26 03:14:19;;;;;;;4.43;1.70;;;8.30;99.90;;;;;;5025664;28;20187;-65
2023/09/26 03:16:44;;;;;;;4.17;1.70;;;8.40;99.90;;;;;;5029217;28;20187;-65
2023/09/26 03:19:10;;;;;;;3.53;2.13;;;8.30;99.90;;;;;;5026323;28;20433;-65
2023/09/26 03:21:36;;;;;;;6.63;1.70;;;8.30;99.90;;;;;;5029384;28;20678;-65
2023/09/26 03:24:02;;;;;;;3.20;1.57;;;8.40;99.90;;;;;;5026585;28;20701;-65
2023/09/26 03:26:27;;;;;;;4.73;2.10;;;8.30;99.90;;;;;;5028898;28;20225;-64
2023/09/26 03:28:53;;;;;;;2.77;1.90;;;11.30;99.90;;;;;;5024553;28;20227;-65
2023/09/26 03:31:19;;;;;;;3.33;1.50;;;8.30;99.90;;;;;;5022296;28;20766;-65
2023/09/26 03:33:44;;;;;;;3.03;2.07;;;8.30;99.90;;;;;;5017813;28;20191;-64
2023/09/26 03:36:10;;;;;;;2.90;1.70;;;8.30;99.90;;;;;;5026116;28;20186;-65
2023/09/26 03:38:35;;;;;;;3.53;1.77;;;8.30;99.90;;;;;;5026598;28;20183;-65
2023/09/26 03:41:03;;;;;;;2.90;1.70;;;8.40;99.90;;;;;;5031152;28;20579;-65
2023/09/26 03:43:29;;;;;;;4.40;2.00;;;8.40;99.90;;;;;;5017716;28;20179;-65
2023/09/26 03:46:01;;;;;;;3.77;1.70;;;8.40;99.90;;;;;;5029271;28;20494;-65
2023/09/26 03:48:27;;;;;;;2.33;1.23;;;8.40;99.90;;;;;;5025382;28;20500;-64
2023/09/26 03:50:52;;;;;;;4.60;2.03;;;8.30;99.90;;;;;;5031333;28;20501;-64
2023/09/26 03:53:18;;;;;;;3.83;1.53;;;8.30;99.90;;;;;;5033065;28;20186;-64
2023/09/26 03:55:44;;;;;;;2.50;1.53;;;8.30;99.90;;;;;;5029340;28;20190;-64
2023/09/26 03:58:09;;;;;;;3.53;1.23;;;8.30;99.90;;;;;;5032044;28;20195;-64
2023/09/26 04:00:35;;;;;;;3.13;1.60;;;8.30;99.90;;;;;;5029000;28;20195;-64
2023/09/26 04:03:01;;;;;;;3.50;1.80;;;8.30;99.90;;;;;;5033333;28;20214;-64
2023/09/26 04:05:27;;;;;;;3.77;1.87;;;8.30;99.90;;;;;;5029448;28;20183;-64
2023/09/26 04:07:53;;;;;;;4.10;1.77;;;8.30;99.90;;;;;;5033104;28;20189;-64
2023/09/26 04:10:18;;;;;;;3.10;2.10;;;8.40;99.90;;;;;;5028915;28;20780;-64
2023/09/26 04:12:44;;;;;;;6.53;2.17;;;8.10;99.90;;;;;;5033101;28;20885;-64
2023/09/26 04:15:10;;;;;;;2.30;1.33;;;;;;;;;;5029193;28;20186;-64
2023/09/26 04:17:37;;;;;;;4.97;1.90;;;;;;;;;;5032568;28;20179;-64
2023/09/26 04:20:17;;;;;;;4.63;2.40;;;;;;;;;;5028932;28;20433;-64
2023/09/26 04:22:43;;;;;;;5.20;2.30;;;;;;;;;;5027301;28;21123;-64
2023/09/26 04:25:09;;;;;;;3.50;1.77;;;8.20;99.90;;;;;;5028123;28;20499;-64
2023/09/26 04:27:34;;;;;;;4.13;2.30;;;8.00;99.90;;;;;;5029484;28;20472;-64
2023/09/26 04:30:00;;;;;;;4.60;2.40;;;8.20;99.90;;;;;;5029256;28;20191;-65
2023/09/26 04:32:25;;;;;;;4.73;2.53;;;8.20;99.90;;;;;;5031986;28;20190;-64
2023/09/26 04:34:52;;;;;;;3.70;2.17;;;8.20;99.90;;;;;;5030964;28;20757;-64
2023/09/26 04:37:18;;;;;;;5.53;2.13;;;;;;;;;;5032031;28;20190;-65
2023/09/26 04:39:43;;;;;;;3.40;2.43;;;8.10;99.90;;;;;;5026108;28;21102;-64
2023/09/26 04:42:09;;;;;;;6.20;2.30;;;8.20;99.90;;;;;;5029042;28;20473;-64
2023/09/26 04:44:34;;;;;;;6.43;2.37;;;8.20;99.90;;;;;;5027051;28;20190;-64
2023/09/26 04:47:00;;;;;;;3.70;2.20;;;8.00;99.90;;;;;;5029057;28;20183;-65
2023/09/26 04:49:26;;;;;;;3.60;1.70;;;10.40;99.90;;;;;;5028240;28;20220;-65
2023/09/26 04:51:51;;;;;;;5.43;2.30;;;8.00;99.90;;;;;;5031044;28;20182;-64
2023/09/26 04:54:17;;;;;;;2.50;1.80;;;10.50;99.90;;;;;;5028508;28;20552;-64
2023/09/26 04:56:42;;;;;;;3.83;2.20;;;7.80;99.90;;;;;;5031650;28;20229;-64
2023/09/26 04:59:08;;;;;;;3.50;2.03;;;7.80;99.90;;;;;;5028678;28;20269;-65
2023/09/26 05:01:33;;;;;;;3.90;1.70;;;7.80;99.90;;;;;;5031754;28;20198;-64
2023/09/26 05:03:59;;;;;;;4.60;2.00;;;9.90;99.90;;;;;;5029911;28;20183;-64
2023/09/26 05:06:25;;;;;;;3.40;2.10;;;;;;;;;;5030941;28;20636;-64
2023/09/26 05:08:51;;;;;;;5.17;1.60;;;7.90;99.90;;;;;;5029130;28;20264;-64
2023/09/26 05:11:16;;;;;;;5.77;2.77;;;7.90;99.90;;;;;;5030414;28;20443;-64
2023/09/26 05:13:43;;;;;;;5.33;2.10;;;7.90;99.90;;;;;;5029812;28;20183;-64
2023/09/26 05:16:09;;;;;;;7.13;2.70;;;8.00;99.90;;;;;;5029584;28;20228;-64
2023/09/26 05:18:36;;;;;;;5.87;2.57;;;8.00;99.90;;;;;;5030065;28;20784;-65
2023/09/26 05:21:08;;;;;;;2.83;1.90;;;;;;;;;;5029649;28;20421;-64
2023/09/26 05:23:34;;;;;;;6.83;2.70;;;8.10;99.90;;;;;;5022685;28;20417;-64
2023/09/26 05:26:08;;;;;;;3.67;1.90;;;8.10;99.90;;;;;;5028927;28;20792;-65
2023/09/26 05:28:34;;;;;;;3.17;2.10;;;7.90;99.90;;;;;;5022475;28;20410;-64
2023/09/26 05:31:00;;;;;;;4.00;1.97;;;8.60;99.90;;;;;;5029240;28;20428;-65
2023/09/26 05:33:26;;;;;;;3.83;1.90;;;9.30;99.90;;;;;;5029579;28;20821;-65
2023/09/26 05:35:53;;;;;;;3.03;2.40;;;7.70;99.90;;;;;;5023334;28;20453;-65
2023/09/26 05:38:19;;;;;;;5.53;2.10;;;7.70;99.90;;;;;;5026555;28;20489;-65
2023/09/26 05:40:46;;;;;;;4.10;2.03;;;8.80;99.90;;;;;;5017809;28;20430;-65
2023/09/26 05:43:11;;;;;;;5.03;2.27;;;7.90;99.90;;;;;;5027122;28;20469;-65
2023/09/26 05:45:37;;;;;;;3.57;2.17;;;7.90;99.90;;;;;;5027189;28;20566;-65
2023/09/26 05:48:04;;;;;;;4.87;2.53;;;9.70;99.90;;;;;;5029625;28;20376;-65
2023/09/26 05:50:30;;;;;;;5.83;2.70;;;8.00;99.90;;;;;;5026125;28;20628;-65
2023/09/26 05:52:55;;;;;;;4.83;2.33;;;8.10;99.90;;;;;;5027105;28;20486;-65
2023/09/26 05:55:21;;;;;;;8.20;2.53;;;8.10;99.90;;;;;;5023578;28;20745;-65
2023/09/26 05:57:46;;;;;;;5.70;2.67;;;8.10;99.90;;;;;;5028653;28;20198;-65
2023/09/26 06:00:12;;;;;;;2.47;1.80;;;8.20;99.90;;;;;;5024779;28;20655;-65
2023/09/26 06:02:39;;;;;;;2.93;2.13;;;8.20;99.90;;;;;;5028354;28;20647;-65
2023/09/26 06:05:05;;;;;;;5.30;3.00;;;8.30;99.90;;;;;;5026318;28;20191;-66
2023/09/26 06:07:30;;;;;;;5.70;2.73;;;8.30;99.90;;;;;;5021093;28;20424;-65
2023/09/26 06:09:56;;;;;;;4.70;2.80;;;8.30;99.90;;;;;;5026069;28;20515;-66
2023/09/26 06:12:22;;;;;;;2.90;2.03;;;8.40;99.90;;;;;;5028726;28;20213;-65
2023/09/26 06:14:47;;;;;;;5.80;2.10;;;8.40;99.90;;;;;;5025877;28;20221;-66
2023/09/26 06:17:13;;;;;;;6.60;2.73;;;8.50;99.90;;;;;;5029222;28;20194;-65
2023/09/26 06:19:39;;;;;;;4.10;2.40;;;8.70;99.90;;;;;;5026023;28;20197;-66
2023/09/26 06:22:05;;;;;;;4.70;2.53;;;8.70;99.90;;;;;;5029494;28;20202;-66
2023/09/26 06:24:31;;;;;;;6.37;2.73;;;8.80;99.90;;;;;;5021431;28;20507;-65
2023/09/26 06:26:57;;;;;;;9.03;2.70;;;8.80;99.90;;;;;;5025738;28;20437;-66
2023/09/26 06:29:22;;;;;;;3.20;2.30;;;8.90;99.90;;;;;;5024617;28;20456;-65
2023/09/26 06:31:48;;;;;;;5.07;2.60;;;9.00;99.90;;;;;;5028936;28;20276;-64
2023/09/26 06:34:14;;;;;;;6.30;3.07;;;9.10;99.90;;;;;;5027240;28;20182;-64
2023/09/26 06:36:40;;;;;;;5.67;2.40;;;9.10;99.90;;;;;;5029213;28;20185;-64
2023/09/26 06:39:05;;;;;;;9.63;2.90;;;9.10;99.90;;;;;;5026517;28;20433;-64
2023/09/26 06:41:31;;;;;;;3.90;2.10;;;9.40;99.90;;;;;;5023442;28;20213;-64
2023/09/26 06:43:57;;;;;;;3.77;2.43;;;9.50;99.90;;;;;;5022302;28;20184;-63
2023/09/26 06:46:22;;;;;;;5.10;3.33;;;9.60;99.90;;;;;;5027994;28;20597;-63
2023/09/26 06:48:48;;;;;;;6.03;2.40;;;9.70;99.90;;;;;;5027244;28;20182;-64
2023/09/26 06:51:14;;;;;;;4.50;2.07;;;9.80;99.90;;;;;;5026339;28;20687;-63
2023/09/26 06:53:39;;;;;;;4.03;2.93;;;10.00;99.90;;;;;;5027184;28;20193;-63
2023/09/26 06:56:08;;;;;;;3.90;2.40;;;10.00;99.90;;;;;;5027932;28;20198;-64
2023/09/26 06:58:34;;;;;;;3.57;2.60;;;10.30;99.90;;;;;;5023313;28;20182;-64
2023/09/26 07:01:00;;;;;;;7.87;3.30;;;10.60;99.90;;;;;;5026679;28;20460;-63
2023/09/26 07:03:27;;;;;;;4.83;2.30;;;10.70;99.90;;;;;;5025827;28;20468;-64
2023/09/26 07:05:56;;;;;;;5.00;2.50;;;10.90;99.90;;;;;;5026928;28;20179;-64
2023/09/26 07:08:22;;;;;;;8.70;2.80;;;11.00;99.90;;;;;;5025545;28;20440;-63
2023/09/26 07:10:49;;;;;;;4.43;2.20;;;11.10;99.90;;;;;;5026284;28;20433;-64
2023/09/26 07:13:14;;;;;;;3.83;2.53;;;11.30;99.90;;;;;;5018064;28;20763;-64
2023/09/26 07:15:40;;;;;;;4.03;2.83;;;11.40;99.90;;;;;;5028440;28;20428;-64
2023/09/26 07:18:09;;;;;;;4.40;2.50;;;11.80;99.90;;;;;;5032259;28;20194;-64
2023/09/26 07:20:36;;;;;;;2.87;2.10;;;12.30;99.90;;;;;;5029889;28;20241;-64
2023/09/26 07:23:03;;;;;;;5.70;2.60;;;12.80;99.90;;;;;;5032802;28;20469;-64
2023/09/26 07:25:29;;;;;;;3.60;2.03;;;13.50;99.90;;;;;;5025736;28;20480;-64
2023/09/26 07:27:55;;;;;;;4.40;2.13;;;13.90;99.90;;;;;;5031677;28;20429;-64
2023/09/26 07:30:21;;;;;;;4.60;2.60;;;14.50;99.90;;;;;;5029276;28;20198;-64
2023/09/26 07:32:46;;;;;;;7.03;3.03;;;14.80;99.90;;;;;;5032303;28;20191;-64
2023/09/26 07:35:12;;;;;;;4.60;2.40;;;15.20;99.90;;;;;;5029422;28;20187;-64
2023/09/26 07:37:38;;;;;;;2.43;1.90;;;15.60;99.90;;;;;;5031219;28;20202;-63
2023/09/26 07:40:06;;;;;;;4.63;2.70;;;16.20;99.90;;;;;;5027804;28;20205;-64
2023/09/26 07:42:33;;;;;;;3.90;1.90;;;17.00;99.90;;;;;;5023408;28;20209;-64
2023/09/26 07:44:58;;;;;;;12.33;2.33;;;17.90;99.90;;;;;;5025421;28;20433;-64
2023/09/26 07:47:24;;;;;;;4.70;2.30;;;18.10;99.90;;;;;;5023817;28;20429;-63
2023/09/26 07:49:50;;;;;;;3.87;2.50;;;18.60;99.90;;;;;;5022312;28;20183;-64
2023/09/26 07:52:15;;;;;;;3.97;2.50;;;19.20;99.90;;;;;;5033110;28;20569;-63
2023/09/26 07:54:41;;;;;;;4.83;2.17;;;19.00;99.90;;;;;;5027651;28;20221;-63
2023/09/26 07:57:07;;;;;;;3.33;2.07;;;19.20;99.90;;;;;;5029931;28;20229;-63
2023/09/26 07:59:34;;;;;;;4.83;2.10;;;19.50;99.70;;;;;;5023112;28;20179;-63
2023/09/26 08:01:59;;;;;;;4.50;2.07;;;19.50;99.70;;;;;;5021146;28;20215;-65
2023/09/26 08:04:25;;;;;;;5.10;2.20;;;19.50;99.50;;;;;;5025853;28;21963;-65
2023/09/26 08:06:51;;;;;;;4.70;1.97;;;19.30;99.50;;;;;;5033171;28;20181;-63
2023/09/26 08:09:16;;;;;;;3.23;2.23;;;19.30;99.60;;;;;;5029328;28;20634;-63
2023/09/26 08:11:42;;;;;;;5.93;2.17;;;19.40;99.90;;;;;;5032581;28;20187;-63
2023/09/26 08:14:07;;;;;;;4.40;2.33;;;19.10;99.90;;;;;;5026262;28;20195;-63
2023/09/26 08:16:33;;;;;;;4.00;2.13;;;18.90;99.90;;;;;;5024985;28;20749;-63
2023/09/26 08:18:59;;;;;;;3.10;2.07;;;18.70;99.90;;;;;;5023635;28;20188;-63
2023/09/26 08:21:26;;;;;;;5.23;2.10;;;18.80;99.90;;;;;;5026651;28;20313;-63
2023/09/26 08:23:52;;;;;;;5.37;2.37;;;18.70;99.90;;;;;;5025059;28;20175;-63
2023/09/26 08:26:19;;;;;;;3.83;1.90;;;18.80;99.90;;;;;;5028512;28;20435;-63
2023/09/26 08:28:45;;;;;;;4.10;2.40;;;18.70;99.90;;;;;;5020932;28;20182;-63
2023/09/26 08:31:15;;;;;;;4.87;1.97;;;18.60;99.90;;;;;;5028953;28;20868;-63
2023/09/26 08:33:42;;;;;;;7.43;2.30;;;18.80;99.90;;;;;;5025973;28;20428;-63
2023/09/26 08:36:16;;;;;;;3.40;2.27;;;18.80;99.90;;;;;;5030647;28;20483;-63
2023/09/26 08:38:46;;;;;;;3.80;2.00;;;18.80;99.90;;;;;;5030488;28;20877;-63
2023/09/26 08:41:13;;;;;;;7.40;2.97;;;19.10;99.90;;;;;;5023885;28;20418;-63
2023/09/26 08:43:38;;;;;;;3.90;2.50;;;19.20;99.90;;;;;;5019884;28;20505;-63
2023/09/26 08:46:05;;;;;;;8.47;2.70;;;18.80;99.90;;;;;;5029646;28;20496;-63
2023/09/26 08:48:32;;;;;;;4.23;2.00;;;19.10;99.90;;;;;;5022762;28;20182;-63
2023/09/26 08:50:58;;;;;;;4.40;1.90;;;19.50;99.90;;;;;;5030662;28;20423;-64
2023/09/26 08:53:24;;;;;;;3.60;2.33;;;19.80;99.80;;;;;;5032366;28;20527;-63
2023/09/26 08:55:49;;;;;;;4.33;2.03;;;20.00;99.90;;;;;;5030648;28;20194;-63
2023/09/26 08:58:16;;;;;;;4.73;2.50;;;19.60;99.90;;;;;;5030959;28;20190;-63
2023/09/26 09:00:43;;;;;;;8.90;2.83;;;19.60;99.90;;;;;;5028988;28;20174;-63
2023/09/26 09:03:08;;;;;;;4.13;1.93;;;20.00;99.90;;;;;;5029777;28;20929;-63
2023/09/26 09:05:34;;;;;;;6.40;2.03;;;20.20;99.90;;;;;;5027833;28;20425;-64
2023/09/26 09:08:00;;;;;;;3.40;2.10;;;20.60;98.80;;;;;;5027079;28;20178;-63
2023/09/26 09:10:25;;;;;;;3.70;2.07;;;20.50;99.10;;;;;;5026566;28;20178;-63
2023/09/26 09:13:01;;;;;;;3.07;1.80;;;21.00;99.00;;;;;;5025588;28;20215;-64
2023/09/26 09:15:28;;;;;;;8.83;2.53;;;21.30;99.20;;;;;;5021563;28;20261;-64
2023/09/26 09:17:54;;;;;;;4.40;2.10;;;21.50;98.00;;;;;;5025562;28;20420;-64
2023/09/26 09:20:34;;;;;;;3.90;2.43;;;21.80;98.40;;;;;;5027876;28;20432;-64
2023/09/26 09:23:05;;;;;;;5.40;2.17;;;22.20;97.30;;;;;;5027530;28;20490;-64
2023/09/26 09:25:35;;;;;;;5.10;2.40;;;22.30;96.60;;;;;;5027227;28;20170;-64
2023/09/26 09:28:02;;;;;;;12.47;2.80;;;22.40;96.50;;;;;;5027319;28;20711;-64
2023/09/26 09:30:28;;;;;;;4.10;2.00;;;21.90;96.90;;;;;;5027547;28;20251;-64
2023/09/26 09:32:55;;;;;;;3.70;2.37;;;21.10;97.80;;;;;;5031482;28;20192;-63
2023/09/26 09:35:21;;;;;;;6.83;1.90;;;20.70;98.40;;;;;;5028018;28;20433;-63
2023/09/26 09:37:49;;;;;;;6.53;2.37;;;20.20;99.10;;;;;;5030704;28;20435;-63
2023/09/26 09:40:20;;;;;;;5.23;2.47;;;19.90;99.70;;;;;;5027417;28;20467;-63
2023/09/26 09:42:48;;;;;;;11.23;1.97;;;20.00;99.90;;;;;;5029916;28;20460;-63
2023/09/26 09:45:13;;;;;;;3.20;2.00;;;20.00;99.40;;;;;;5026305;28;20420;-63
2023/09/26 09:47:42;;;;;;;2.20;1.50;;;19.90;99.30;;;;;;5028326;28;20413;-63
2023/09/26 09:50:08;;;;;;;5.97;2.23;;;19.80;99.40;;;;;;5025784;28;20261;-63
2023/09/26 09:52:35;;;;;;;3.20;1.73;;;19.80;99.70;;;;;;5020908;28;20504;-63
2023/09/26 09:55:08;;;;;;;3.00;1.40;;;19.70;99.90;;;;;;5026284;28;20183;-63
2023/09/26 09:57:40;;;;;;;3.60;2.30;;;19.30;99.90;;;;;;5022703;28;20551;-63
2023/09/26 10:00:07;;;;;;;12.10;2.03;;;19.40;99.90;;;;;;5029467;28;20452;-64
2023/09/26 10:02:34;;;;;;;3.90;1.93;;;19.40;99.90;;;;;;5030207;28;20453;-64
2023/09/26 10:05:05;;;;;;;3.00;1.67;;;19.50;99.90;;;;;;5027003;28;20452;-64
2023/09/26 10:07:32;;;;;;;3.10;1.83;;;19.70;99.90;;;;;;5019038;28;20509;-64
2023/09/26 10:09:58;;;;;;;3.73;1.90;;;19.60;99.90;;;;;;5019329;28;20425;-64
2023/09/26 10:12:25;;;;;;;3.67;1.90;;;19.50;99.90;;;;;;5021179;28;20422;-64
2023/09/26 10:14:54;;;;;;;2.87;1.60;;;19.60;99.90;;;;;;5021157;28;20440;-64
2023/09/26 10:17:20;;;;;;;5.43;1.90;;;19.80;99.90;;;;;;5024943;28;20512;-64
2023/09/26 10:19:46;;;;;;;4.47;1.80;;;20.00;99.80;;;;;;5025703;28;21010;-64
2023/09/26 10:22:20;;;;;;;4.60;1.40;;;20.00;99.70;;;;;;5025272;28;20563;-64
2023/09/26 10:24:53;;;;;;;2.60;1.30;;;19.90;99.90;;;;;;5021250;28;20425;-64
2023/09/26 10:27:30;;;;;;;3.00;1.43;;;19.90;99.90;;;;;;5024338;28;20928;-64
2023/09/26 10:29:56;;;;;;;4.00;1.40;;;20.00;99.70;;;;;;5023018;28;20456;-64
2023/09/26 10:32:35;;;;;;;2.63;1.63;;;20.00;99.80;;;;;;5018594;28;20484;-64
2023/09/26 10:35:24;;;;;;;2.90;1.63;;;20.20;99.90;;;;;;5024778;28;20186;-64
2023/09/26 10:37:53;;;;;;;4.43;1.57;;;20.30;99.70;;;;;;5025971;28;20496;-64
2023/09/26 10:40:19;;;;;;;2.63;1.20;;;20.50;99.20;;;;;;5022789;28;20421;-64
2023/09/26 10:42:49;;;;;;;5.07;1.80;;;20.60;99.30;;;;;;5019115;28;20465;-64
2023/09/26 10:45:15;;;;;;;2.80;1.77;;;20.70;98.70;;;;;;5027195;28;20261;-64
2023/09/26 10:47:41;;;;;;;2.03;1.10;;;20.70;98.40;;;;;;5028884;28;20475;-64
2023/09/26 10:50:16;;;;;;;1.90;1.20;;;20.70;98.00;;;;;;5029698;28;20916;-64
2023/09/26 10:52:46;;;;;;;3.80;1.57;;;20.70;98.30;;;;;;5032806;28;20614;-64
2023/09/26 10:55:19;;;;;;;3.33;1.50;;;20.80;97.80;;;;;;5029451;28;20524;-64
2023/09/26 10:57:45;;;;;;;2.13;1.00;;;20.80;98.30;;;;;;5032797;28;20441;-64
2023/09/26 11:00:14;;;;;;;3.80;1.60;;;21.20;98.10;;;;;;5027879;28;20498;-64
2023/09/26 11:02:42;;;;;;;4.53;1.40;;;21.40;97.30;;;;;;5032835;28;20975;-64
2023/09/26 11:05:08;;;;;;;3.40;1.20;;;21.50;95.20;;;;;;5031081;28;20440;-65
2023/09/26 11:07:35;;;;;;;3.00;1.40;;;21.60;95.30;;;;;;5032818;28;21250;-64
2023/09/26 11:10:03;;;;;;;1.70;0.80;;;21.60;95.80;;;;;;5029469;28;20896;-64
2023/09/26 11:12:30;;;;;;;3.83;1.07;;;21.90;95.80;;;;;;5025173;28;20433;-64
2023/09/26 11:14:55;;;;;;;1.80;0.83;;;22.00;94.70;;;;;;5027541;28;20475;-64
2023/09/26 11:17:23;;;;;;;2.27;1.33;;;21.90;94.60;;;;;;5026839;28;20421;-64
2023/09/26 11:19:50;;;;;;;2.13;0.87;;;21.90;93.40;;;;;;5026722;28;20220;-64
2023/09/26 11:22:16;;;;;;;3.00;1.00;;;22.00;93.30;;;;;;5032297;28;20566;-64
2023/09/26 11:24:41;;;;;;;3.23;1.50;;;22.20;93.00;;;;;;5028969;28;20421;-64
2023/09/26 11:27:08;;;;;;;1.90;1.00;;;22.40;93.10;;;;;;5031808;28;21114;-64
2023/09/26 11:29:35;;;;;;;3.00;1.10;;;22.50;92.80;;;;;;5026309;28;20174;-64
2023/09/26 11:32:03;;;;;;;5.10;0.93;;;22.70;91.80;;;;;;5022192;28;20413;-64
2023/09/26 11:34:29;;;;;;;1.97;0.90;;;22.70;91.90;;;;;;5023064;28;20456;-64
2023/09/26 11:36:55;;;;;;;2.80;1.10;;;22.60;91.00;;;;;;5022258;28;20511;-64
2023/09/26 11:39:23;;;;;;;2.50;1.00;;;22.50;91.30;;;;;;5025120;28;20835;-64
2023/09/26 11:42:11;;;;;;;2.70;0.90;;;22.30;90.90;;;;;;5023657;28;20469;-64
2023/09/26 11:44:37;;;;;;;1.67;0.67;;;22.50;92.20;;;;;;5024646;28;20448;-64
2023/09/26 11:47:04;;;;;;;2.07;0.67;;;23.00;90.60;;;;;;5028536;28;20409;-64
2023/09/26 11:49:30;;;;;;;5.40;1.40;;;23.20;90.30;;;;;;5028414;28;20184;-64
2023/09/26 11:51:56;;;;;;;1.50;0.77;;;23.10;90.90;;;;;;5030217;28;21097;-64
2023/09/26 11:54:22;;;;;;;2.43;1.13;;;23.30;89.30;;;;;;5018408;28;20499;-64
2023/09/26 11:56:48;;;;;;;2.67;0.80;;;23.20;90.90;;;;;;5031676;28;20646;-64
2023/09/26 11:59:15;;;;;;;2.23;0.97;;;23.30;91.20;;;;;;5025471;28;20187;-64
2023/09/26 12:01:44;;;;;;;3.60;0.77;;;23.20;86.40;;;;;;5024954;28;20457;-64
2023/09/26 12:04:13;;;;;;;10.40;1.43;;;23.50;86.90;;;;;;5028188;28;20420;-64
2023/09/26 12:06:42;;;;;;;1.83;0.80;;;23.70;88.40;;;;;;5031863;28;20451;-64
2023/09/26 12:09:18;;;;;;;2.83;0.93;;;23.50;85.90;;;;;;5028608;28;20491;-64
2023/09/26 12:11:44;;;;;;;2.70;1.00;;;23.60;85.90;;;;;;5026315;28;20791;-64
2023/09/26 12:14:09;;;;;;;1.90;0.90;;;23.50;86.30;;;;;;5026539;28;20444;-64
2023/09/26 12:16:35;;;;;;;1.70;0.80;;;23.50;85.20;;;;;;5029115;28;20432;-64
2023/09/26 12:19:01;;;;;;;1.93;0.83;;;23.50;87.00;;;;;;5026907;28;20197;-64
2023/09/26 12:21:26;;;;;;;1.77;0.90;;;23.40;84.90;;;;;;5023632;28;20281;-64
2023/09/26 12:23:52;;;;;;;2.60;1.10;;;23.60;85.70;;;;;;5029224;28;20186;-64
2023/09/26 12:26:18;;;;;;;2.00;0.73;;;23.60;85.90;;;;;;5031628;28;20190;-64
2023/09/26 12:28:44;;;;;;;1.77;0.70;;;23.90;85.30;;;;;;5028037;28;20430;-64
2023/09/26 12:31:09;;;;;;;8.00;1.30;;;24.10;88.40;;;;;;5027077;28;20186;-64
2023/09/26 12:33:35;;;;;;;3.97;0.87;;;24.20;86.40;;;;;;5029049;28;20684;-64
2023/09/26 12:36:00;;;;;;;1.50;0.70;;;24.20;87.40;;;;;;5029385;28;20196;-65
2023/09/26 12:38:26;;;;;;;2.30;0.90;;;24.40;85.10;;;;;;5030213;28;20236;-65
2023/09/26 12:40:52;;;;;;;2.47;0.60;;;24.50;82.90;;;;;;5020810;28;20184;-65
2023/09/26 12:43:17;;;;;;;2.73;0.93;;;24.60;82.60;;;;;;5027133;28;20245;-64
2023/09/26 12:45:43;;;;;;;1.70;0.87;;;24.80;83.60;;;;;;5027100;28;20216;-65
2023/09/26 12:48:09;;;;;;;2.10;1.00;;;24.70;84.80;;;;;;5031043;28;20524;-65
2023/09/26 12:50:36;;;;;;;1.60;0.73;;;24.80;83.00;;;;;;5029146;28;20224;-65
2023/09/26 12:53:02;;;;;;;4.80;1.00;;;24.90;82.80;;;;;;5031082;28;20204;-65